sensor_id;sensor_type;location;lat;lon;timestamp;P1;durP1;ratioP1;P2;durP2;ratioP2
70078;SDS011;57451;52.496;13.456;2023-07-31T00:00:02;4.63;;;1.60;;
70078;SDS011;57451;52.496;13.456;2023-07-31T00:02:32;5.15;;;1.50;;
70078;SDS011;57451;52.496;13.456;2023-07-31T00:04:59;4.73;;;1.50;;
70078;SDS011;57451;52.496;13.456;2023-07-31T00:07:27;3.42;;;1.35;;
70078;SDS011;57451;52.496;13.456;2023-07-31T00:09:55;5.55;;;1.88;;
70078;SDS011;57451;52.496;13.456;2023-07-31T00:12:23;5.60;;;1.73;;
70078;SDS011;57451;52.496;13.456;2023-07-31T00:14:51;6.30;;;2.13;;
70078;SDS011;57451;52.496;13.456;2023-07-31T00:17:18;6.70;;;1.57;;
70078;SDS011;57451;52.496;13.456;2023-07-31T00:19:47;6.80;;;1.58;;
70078;SDS011;57451;52.496;13.456;2023-07-31T00:22:17;6.20;;;1.65;;
70078;SDS011;57451;52.496;13.456;2023-07-31T00:24:44;6.00;;;1.70;;
70078;SDS011;57451;52.496;13.456;2023-07-31T00:27:12;5.28;;;1.60;;
70078;SDS011;57451;52.496;13.456;2023-07-31T00:29:39;3.73;;;1.57;;
70078;SDS011;57451;52.496;13.456;2023-07-31T00:32:06;5.68;;;1.92;;
70078;SDS011;57451;52.496;13.456;2023-07-31T00:34:36;5.07;;;1.85;;
70078;SDS011;57451;52.496;13.456;2023-07-31T00:37:05;5.43;;;1.92;;
70078;SDS011;57451;52.496;13.456;2023-07-31T00:39:34;5.22;;;1.90;;
70078;SDS011;57451;52.496;13.456;2023-07-31T00:42:02;5.57;;;2.00;;
70078;SDS011;57451;52.496;13.456;2023-07-31T00:44:31;4.82;;;1.98;;
70078;SDS011;57451;52.496;13.456;2023-07-31T00:46:59;4.57;;;1.90;;
70078;SDS011;57451;52.496;13.456;2023-07-31T00:49:27;6.10;;;1.77;;
70078;SDS011;57451;52.496;13.456;2023-07-31T00:51:55;5.70;;;1.75;;
70078;SDS011;57451;52.496;13.456;2023-07-31T00:54:26;5.47;;;1.97;;
70078;SDS011;57451;52.496;13.456;2023-07-31T00:56:53;5.68;;;1.88;;
70078;SDS011;57451;52.496;13.456;2023-07-31T00:59:21;4.35;;;1.85;;
70078;SDS011;57451;52.496;13.456;2023-07-31T01:01:48;4.55;;;2.00;;
70078;SDS011;57451;52.496;13.456;2023-07-31T01:04:16;5.25;;;2.17;;
70078;SDS011;57451;52.496;13.456;2023-07-31T01:06:47;5.07;;;2.17;;
70078;SDS011;57451;52.496;13.456;2023-07-31T01:09:23;4.82;;;2.03;;
70078;SDS011;57451;52.496;13.456;2023-07-31T01:12:01;5.57;;;2.08;;
70078;SDS011;57451;52.496;13.456;2023-07-31T01:14:30;7.03;;;2.20;;
70078;SDS011;57451;52.496;13.456;2023-07-31T01:16:57;5.15;;;2.00;;
70078;SDS011;57451;52.496;13.456;2023-07-31T01:19:25;6.00;;;2.10;;
70078;SDS011;57451;52.496;13.456;2023-07-31T01:22:01;6.20;;;2.15;;
70078;SDS011;57451;52.496;13.456;2023-07-31T01:24:44;5.13;;;1.95;;
70078;SDS011;57451;52.496;13.456;2023-07-31T01:27:24;5.43;;;2.03;;
70078;SDS011;57451;52.496;13.456;2023-07-31T01:29:56;5.15;;;2.00;;
70078;SDS011;57451;52.496;13.456;2023-07-31T01:32:30;4.93;;;2.00;;
70078;SDS011;57451;52.496;13.456;2023-07-31T01:34:59;6.82;;;2.20;;
70078;SDS011;57451;52.496;13.456;2023-07-31T01:37:27;4.63;;;2.20;;
70078;SDS011;57451;52.496;13.456;2023-07-31T01:39:55;7.95;;;2.45;;
70078;SDS011;57451;52.496;13.456;2023-07-31T01:42:24;5.00;;;1.88;;
70078;SDS011;57451;52.496;13.456;2023-07-31T01:44:51;6.80;;;2.20;;
70078;SDS011;57451;52.496;13.456;2023-07-31T01:47:19;4.75;;;2.13;;
70078;SDS011;57451;52.496;13.456;2023-07-31T01:49:46;5.90;;;2.40;;
70078;SDS011;57451;52.496;13.456;2023-07-31T01:52:13;4.70;;;2.00;;
70078;SDS011;57451;52.496;13.456;2023-07-31T01:54:41;7.38;;;2.40;;
70078;SDS011;57451;52.496;13.456;2023-07-31T01:57:09;5.60;;;2.03;;
70078;SDS011;57451;52.496;13.456;2023-07-31T01:59:37;5.57;;;2.58;;
70078;SDS011;57451;52.496;13.456;2023-07-31T02:02:05;4.63;;;2.30;;
70078;SDS011;57451;52.496;13.456;2023-07-31T02:04:33;5.30;;;2.30;;
70078;SDS011;57451;52.496;13.456;2023-07-31T02:07:02;7.07;;;2.30;;
70078;SDS011;57451;52.496;13.456;2023-07-31T02:09:30;5.93;;;2.53;;
70078;SDS011;57451;52.496;13.456;2023-07-31T02:11:58;5.22;;;2.33;;
70078;SDS011;57451;52.496;13.456;2023-07-31T02:14:26;5.45;;;2.30;;
70078;SDS011;57451;52.496;13.456;2023-07-31T02:16:55;5.45;;;2.63;;
70078;SDS011;57451;52.496;13.456;2023-07-31T02:19:22;5.60;;;2.33;;
70078;SDS011;57451;52.496;13.456;2023-07-31T02:21:49;6.77;;;2.43;;
70078;SDS011;57451;52.496;13.456;2023-07-31T02:24:17;6.05;;;2.28;;
70078;SDS011;57451;52.496;13.456;2023-07-31T02:26:44;5.88;;;2.60;;
70078;SDS011;57451;52.496;13.456;2023-07-31T02:29:12;5.28;;;2.45;;
70078;SDS011;57451;52.496;13.456;2023-07-31T02:31:39;8.13;;;2.65;;
70078;SDS011;57451;52.496;13.456;2023-07-31T02:34:08;6.33;;;2.77;;
70078;SDS011;57451;52.496;13.456;2023-07-31T02:36:35;5.88;;;2.70;;
70078;SDS011;57451;52.496;13.456;2023-07-31T02:39:03;6.40;;;2.70;;
70078;SDS011;57451;52.496;13.456;2023-07-31T02:41:31;7.32;;;2.90;;
70078;SDS011;57451;52.496;13.456;2023-07-31T02:43:58;6.63;;;2.80;;
70078;SDS011;57451;52.496;13.456;2023-07-31T02:46:26;5.63;;;2.60;;
70078;SDS011;57451;52.496;13.456;2023-07-31T02:48:54;6.28;;;2.60;;
70078;SDS011;57451;52.496;13.456;2023-07-31T02:51:23;6.00;;;2.85;;
70078;SDS011;57451;52.496;13.456;2023-07-31T02:53:50;5.38;;;2.80;;
70078;SDS011;57451;52.496;13.456;2023-07-31T02:56:18;8.30;;;2.90;;
70078;SDS011;57451;52.496;13.456;2023-07-31T02:58:45;5.10;;;2.83;;
70078;SDS011;57451;52.496;13.456;2023-07-31T03:01:12;5.40;;;2.58;;
70078;SDS011;57451;52.496;13.456;2023-07-31T03:03:40;6.10;;;2.90;;
70078;SDS011;57451;52.496;13.456;2023-07-31T03:06:08;5.88;;;2.70;;
70078;SDS011;57451;52.496;13.456;2023-07-31T03:08:37;6.35;;;3.15;;
70078;SDS011;57451;52.496;13.456;2023-07-31T03:11:04;6.73;;;3.17;;
70078;SDS011;57451;52.496;13.456;2023-07-31T03:13:32;6.88;;;3.10;;
70078;SDS011;57451;52.496;13.456;2023-07-31T03:15:59;10.48;;;3.47;;
70078;SDS011;57451;52.496;13.456;2023-07-31T03:18:26;6.55;;;3.53;;
70078;SDS011;57451;52.496;13.456;2023-07-31T03:20:54;8.02;;;3.90;;
70078;SDS011;57451;52.496;13.456;2023-07-31T03:23:21;10.07;;;3.83;;
70078;SDS011;57451;52.496;13.456;2023-07-31T03:25:56;7.40;;;3.95;;
70078;SDS011;57451;52.496;13.456;2023-07-31T03:28:27;7.03;;;3.78;;
70078;SDS011;57451;52.496;13.456;2023-07-31T03:30:55;7.55;;;3.97;;
70078;SDS011;57451;52.496;13.456;2023-07-31T03:33:22;7.80;;;3.78;;
70078;SDS011;57451;52.496;13.456;2023-07-31T03:35:50;8.33;;;3.70;;
70078;SDS011;57451;52.496;13.456;2023-07-31T03:38:17;7.93;;;3.40;;
70078;SDS011;57451;52.496;13.456;2023-07-31T03:40:45;9.23;;;3.90;;
70078;SDS011;57451;52.496;13.456;2023-07-31T03:43:14;7.45;;;3.65;;
70078;SDS011;57451;52.496;13.456;2023-07-31T03:45:42;7.07;;;3.55;;
70078;SDS011;57451;52.496;13.456;2023-07-31T03:48:10;8.73;;;3.67;;
70078;SDS011;57451;52.496;13.456;2023-07-31T03:50:38;6.72;;;3.72;;
70078;SDS011;57451;52.496;13.456;2023-07-31T03:53:05;8.43;;;3.90;;
70078;SDS011;57451;52.496;13.456;2023-07-31T03:55:33;6.97;;;3.42;;
70078;SDS011;57451;52.496;13.456;2023-07-31T03:58:00;7.15;;;3.90;;
70078;SDS011;57451;52.496;13.456;2023-07-31T04:00:29;7.17;;;3.97;;
70078;SDS011;57451;52.496;13.456;2023-07-31T04:02:56;8.23;;;3.83;;
70078;SDS011;57451;52.496;13.456;2023-07-31T04:05:24;7.53;;;3.75;;
70078;SDS011;57451;52.496;13.456;2023-07-31T04:07:51;7.47;;;3.90;;
70078;SDS011;57451;52.496;13.456;2023-07-31T04:10:18;7.20;;;3.65;;
70078;SDS011;57451;52.496;13.456;2023-07-31T04:12:46;7.90;;;3.87;;
70078;SDS011;57451;52.496;13.456;2023-07-31T04:15:13;7.95;;;3.95;;
70078;SDS011;57451;52.496;13.456;2023-07-31T04:17:42;6.18;;;3.60;;
70078;SDS011;57451;52.496;13.456;2023-07-31T04:20:10;7.30;;;3.60;;
70078;SDS011;57451;52.496;13.456;2023-07-31T04:22:38;9.25;;;4.22;;
70078;SDS011;57451;52.496;13.456;2023-07-31T04:25:06;7.60;;;3.77;;
70078;SDS011;57451;52.496;13.456;2023-07-31T04:27:34;6.80;;;3.53;;
70078;SDS011;57451;52.496;13.456;2023-07-31T04:30:01;8.35;;;3.90;;
70078;SDS011;57451;52.496;13.456;2023-07-31T04:32:29;7.53;;;3.55;;
70078;SDS011;57451;52.496;13.456;2023-07-31T04:34:58;7.63;;;3.78;;
70078;SDS011;57451;52.496;13.456;2023-07-31T04:37:25;7.23;;;3.43;;
70078;SDS011;57451;52.496;13.456;2023-07-31T04:39:52;7.78;;;3.60;;
70078;SDS011;57451;52.496;13.456;2023-07-31T04:42:19;6.85;;;3.67;;
70078;SDS011;57451;52.496;13.456;2023-07-31T04:44:47;6.75;;;3.53;;
70078;SDS011;57451;52.496;13.456;2023-07-31T04:47:14;8.00;;;3.67;;
70078;SDS011;57451;52.496;13.456;2023-07-31T04:49:41;8.37;;;3.40;;
70078;SDS011;57451;52.496;13.456;2023-07-31T04:52:10;7.30;;;3.15;;
70078;SDS011;57451;52.496;13.456;2023-07-31T04:54:37;7.07;;;3.75;;
70078;SDS011;57451;52.496;13.456;2023-07-31T04:57:05;7.63;;;3.50;;
70078;SDS011;57451;52.496;13.456;2023-07-31T04:59:33;7.88;;;3.72;;
70078;SDS011;57451;52.496;13.456;2023-07-31T05:02:01;7.57;;;3.73;;
70078;SDS011;57451;52.496;13.456;2023-07-31T05:04:28;6.35;;;3.38;;
70078;SDS011;57451;52.496;13.456;2023-07-31T05:06:55;7.43;;;3.50;;
70078;SDS011;57451;52.496;13.456;2023-07-31T05:09:24;6.35;;;3.05;;
70078;SDS011;57451;52.496;13.456;2023-07-31T05:11:51;6.50;;;3.17;;
70078;SDS011;57451;52.496;13.456;2023-07-31T05:14:19;6.83;;;3.20;;
70078;SDS011;57451;52.496;13.456;2023-07-31T05:16:47;6.53;;;3.30;;
70078;SDS011;57451;52.496;13.456;2023-07-31T05:19:14;7.82;;;3.13;;
70078;SDS011;57451;52.496;13.456;2023-07-31T05:21:42;7.80;;;3.40;;
70078;SDS011;57451;52.496;13.456;2023-07-31T05:24:09;8.15;;;3.65;;
70078;SDS011;57451;52.496;13.456;2023-07-31T05:26:38;7.03;;;3.17;;
70078;SDS011;57451;52.496;13.456;2023-07-31T05:29:06;7.72;;;3.30;;
70078;SDS011;57451;52.496;13.456;2023-07-31T05:31:33;7.18;;;3.05;;
70078;SDS011;57451;52.496;13.456;2023-07-31T05:34:01;6.40;;;3.10;;
70078;SDS011;57451;52.496;13.456;2023-07-31T05:36:28;6.03;;;2.95;;
70078;SDS011;57451;52.496;13.456;2023-07-31T05:38:56;8.03;;;3.30;;
70078;SDS011;57451;52.496;13.456;2023-07-31T05:41:23;6.43;;;2.90;;
70078;SDS011;57451;52.496;13.456;2023-07-31T05:43:52;7.15;;;2.85;;
70078;SDS011;57451;52.496;13.456;2023-07-31T05:46:19;8.80;;;3.22;;
70078;SDS011;57451;52.496;13.456;2023-07-31T05:48:46;6.63;;;2.72;;
70078;SDS011;57451;52.496;13.456;2023-07-31T05:51:14;7.60;;;2.60;;
70078;SDS011;57451;52.496;13.456;2023-07-31T05:53:41;7.95;;;3.33;;
70078;SDS011;57451;52.496;13.456;2023-07-31T05:56:08;6.90;;;2.88;;
70078;SDS011;57451;52.496;13.456;2023-07-31T05:58:36;6.45;;;2.65;;
70078;SDS011;57451;52.496;13.456;2023-07-31T06:01:04;6.95;;;2.83;;
70078;SDS011;57451;52.496;13.456;2023-07-31T06:03:32;9.43;;;2.80;;
70078;SDS011;57451;52.496;13.456;2023-07-31T06:05:59;6.78;;;2.88;;
70078;SDS011;57451;52.496;13.456;2023-07-31T06:08:27;6.97;;;2.88;;
70078;SDS011;57451;52.496;13.456;2023-07-31T06:10:54;6.63;;;3.00;;
70078;SDS011;57451;52.496;13.456;2023-07-31T06:13:21;5.00;;;2.60;;
70078;SDS011;57451;52.496;13.456;2023-07-31T06:15:49;6.63;;;2.93;;
70078;SDS011;57451;52.496;13.456;2023-07-31T06:18:19;6.40;;;2.88;;
70078;SDS011;57451;52.496;13.456;2023-07-31T06:20:46;10.63;;;2.58;;
70078;SDS011;57451;52.496;13.456;2023-07-31T06:23:14;7.10;;;2.65;;
70078;SDS011;57451;52.496;13.456;2023-07-31T06:25:41;5.72;;;2.72;;
70078;SDS011;57451;52.496;13.456;2023-07-31T06:28:09;7.43;;;2.77;;
70078;SDS011;57451;52.496;13.456;2023-07-31T06:30:36;6.45;;;2.88;;
70078;SDS011;57451;52.496;13.456;2023-07-31T06:33:03;5.78;;;2.42;;
70078;SDS011;57451;52.496;13.456;2023-07-31T06:35:32;8.15;;;3.28;;
70078;SDS011;57451;52.496;13.456;2023-07-31T06:38:00;6.13;;;2.78;;
70078;SDS011;57451;52.496;13.456;2023-07-31T06:40:29;6.20;;;2.83;;
70078;SDS011;57451;52.496;13.456;2023-07-31T06:42:56;5.88;;;2.53;;
70078;SDS011;57451;52.496;13.456;2023-07-31T06:45:24;7.15;;;2.90;;
70078;SDS011;57451;52.496;13.456;2023-07-31T06:47:51;7.25;;;2.88;;
70078;SDS011;57451;52.496;13.456;2023-07-31T06:50:19;6.50;;;2.63;;
70078;SDS011;57451;52.496;13.456;2023-07-31T06:52:47;9.33;;;2.70;;
70078;SDS011;57451;52.496;13.456;2023-07-31T06:55:16;9.23;;;3.05;;
70078;SDS011;57451;52.496;13.456;2023-07-31T06:57:45;5.68;;;2.60;;
70078;SDS011;57451;52.496;13.456;2023-07-31T07:00:13;6.45;;;2.80;;
70078;SDS011;57451;52.496;13.456;2023-07-31T07:02:41;5.43;;;2.40;;
70078;SDS011;57451;52.496;13.456;2023-07-31T07:05:08;7.07;;;2.40;;
70078;SDS011;57451;52.496;13.456;2023-07-31T07:07:36;6.28;;;2.65;;
70078;SDS011;57451;52.496;13.456;2023-07-31T07:10:05;6.63;;;2.60;;
70078;SDS011;57451;52.496;13.456;2023-07-31T07:12:34;8.00;;;2.80;;
70078;SDS011;57451;52.496;13.456;2023-07-31T07:15:02;6.95;;;2.53;;
70078;SDS011;57451;52.496;13.456;2023-07-31T07:17:30;5.87;;;2.70;;
70078;SDS011;57451;52.496;13.456;2023-07-31T07:19:58;6.32;;;2.55;;
70078;SDS011;57451;52.496;13.456;2023-07-31T07:22:26;6.55;;;2.50;;
70078;SDS011;57451;52.496;13.456;2023-07-31T07:24:54;5.57;;;2.60;;
70078;SDS011;57451;52.496;13.456;2023-07-31T07:27:23;5.78;;;2.70;;
70078;SDS011;57451;52.496;13.456;2023-07-31T07:29:50;6.33;;;2.57;;
70078;SDS011;57451;52.496;13.456;2023-07-31T07:32:21;6.38;;;2.83;;
70078;SDS011;57451;52.496;13.456;2023-07-31T07:34:48;7.32;;;2.78;;
70078;SDS011;57451;52.496;13.456;2023-07-31T07:37:16;6.20;;;2.60;;
70078;SDS011;57451;52.496;13.456;2023-07-31T07:39:44;6.00;;;2.72;;
70078;SDS011;57451;52.496;13.456;2023-07-31T07:42:11;6.73;;;2.63;;
70078;SDS011;57451;52.496;13.456;2023-07-31T07:44:40;6.32;;;2.92;;
70078;SDS011;57451;52.496;13.456;2023-07-31T07:47:07;6.60;;;2.40;;
70078;SDS011;57451;52.496;13.456;2023-07-31T07:49:34;6.10;;;2.75;;
70078;SDS011;57451;52.496;13.456;2023-07-31T07:52:02;8.13;;;2.60;;
70078;SDS011;57451;52.496;13.456;2023-07-31T07:54:30;5.43;;;2.63;;
70078;SDS011;57451;52.496;13.456;2023-07-31T07:56:58;7.13;;;2.67;;
70078;SDS011;57451;52.496;13.456;2023-07-31T07:59:26;6.30;;;2.75;;
70078;SDS011;57451;52.496;13.456;2023-07-31T08:01:54;6.50;;;2.75;;
70078;SDS011;57451;52.496;13.456;2023-07-31T08:04:22;6.82;;;2.60;;
70078;SDS011;57451;52.496;13.456;2023-07-31T08:06:49;4.63;;;2.30;;
70078;SDS011;57451;52.496;13.456;2023-07-31T08:09:17;6.80;;;2.20;;
70078;SDS011;57451;52.496;13.456;2023-07-31T08:11:44;4.75;;;2.35;;
70078;SDS011;57451;52.496;13.456;2023-07-31T08:14:11;5.10;;;2.45;;
70078;SDS011;57451;52.496;13.456;2023-07-31T08:16:39;5.63;;;2.38;;
70078;SDS011;57451;52.496;13.456;2023-07-31T08:19:08;5.37;;;2.10;;
70078;SDS011;57451;52.496;13.456;2023-07-31T08:21:35;5.00;;;2.08;;
70078;SDS011;57451;52.496;13.456;2023-07-31T08:24:03;4.82;;;2.00;;
70078;SDS011;57451;52.496;13.456;2023-07-31T08:26:30;4.95;;;1.90;;
70078;SDS011;57451;52.496;13.456;2023-07-31T08:28:58;6.05;;;2.65;;
70078;SDS011;57451;52.496;13.456;2023-07-31T08:31:25;4.90;;;2.23;;
70078;SDS011;57451;52.496;13.456;2023-07-31T08:33:53;4.93;;;2.10;;
70078;SDS011;57451;52.496;13.456;2023-07-31T08:36:22;4.43;;;2.30;;
70078;SDS011;57451;52.496;13.456;2023-07-31T08:38:49;5.82;;;2.63;;
70078;SDS011;57451;52.496;13.456;2023-07-31T08:41:17;4.32;;;2.15;;
70078;SDS011;57451;52.496;13.456;2023-07-31T08:43:45;4.07;;;2.10;;
70078;SDS011;57451;52.496;13.456;2023-07-31T08:46:13;7.13;;;2.35;;
70078;SDS011;57451;52.496;13.456;2023-07-31T08:48:41;4.22;;;2.33;;
70078;SDS011;57451;52.496;13.456;2023-07-31T08:51:09;5.35;;;2.30;;
70078;SDS011;57451;52.496;13.456;2023-07-31T08:53:38;5.53;;;2.40;;
70078;SDS011;57451;52.496;13.456;2023-07-31T08:56:06;4.70;;;2.30;;
70078;SDS011;57451;52.496;13.456;2023-07-31T08:58:34;4.93;;;2.47;;
70078;SDS011;57451;52.496;13.456;2023-07-31T09:01:03;6.50;;;2.42;;
70078;SDS011;57451;52.496;13.456;2023-07-31T09:03:33;4.85;;;2.13;;
70078;SDS011;57451;52.496;13.456;2023-07-31T09:06:02;4.22;;;2.08;;
70078;SDS011;57451;52.496;13.456;2023-07-31T09:08:32;5.33;;;2.50;;
70078;SDS011;57451;52.496;13.456;2023-07-31T09:11:02;7.47;;;2.50;;
70078;SDS011;57451;52.496;13.456;2023-07-31T09:13:32;7.43;;;2.50;;
70078;SDS011;57451;52.496;13.456;2023-07-31T09:16:00;5.05;;;2.20;;
70078;SDS011;57451;52.496;13.456;2023-07-31T09:18:27;5.65;;;1.95;;
70078;SDS011;57451;52.496;13.456;2023-07-31T09:21:01;5.13;;;2.17;;
70078;SDS011;57451;52.496;13.456;2023-07-31T09:23:39;3.65;;;2.03;;
70078;SDS011;57451;52.496;13.456;2023-07-31T09:26:09;4.40;;;1.83;;
70078;SDS011;57451;52.496;13.456;2023-07-31T09:28:36;5.75;;;1.90;;
70078;SDS011;57451;52.496;13.456;2023-07-31T09:31:04;4.10;;;1.63;;
70078;SDS011;57451;52.496;13.456;2023-07-31T09:33:31;3.77;;;1.60;;
70078;SDS011;57451;52.496;13.456;2023-07-31T09:35:59;3.78;;;1.30;;
70078;SDS011;57451;52.496;13.456;2023-07-31T09:38:27;2.97;;;1.20;;
70078;SDS011;57451;52.496;13.456;2023-07-31T09:40:54;3.58;;;1.50;;
70078;SDS011;57451;52.496;13.456;2023-07-31T09:43:26;4.35;;;1.45;;
70078;SDS011;57451;52.496;13.456;2023-07-31T09:45:55;4.33;;;1.43;;
70078;SDS011;57451;52.496;13.456;2023-07-31T09:48:23;3.72;;;1.15;;
70078;SDS011;57451;52.496;13.456;2023-07-31T09:50:54;3.65;;;1.30;;
70078;SDS011;57451;52.496;13.456;2023-07-31T09:53:27;4.53;;;1.33;;
70078;SDS011;57451;52.496;13.456;2023-07-31T09:55:57;3.10;;;1.02;;
70078;SDS011;57451;52.496;13.456;2023-07-31T09:58:27;3.50;;;1.30;;
70078;SDS011;57451;52.496;13.456;2023-07-31T10:00:57;3.83;;;1.25;;
70078;SDS011;57451;52.496;13.456;2023-07-31T10:03:26;4.25;;;1.58;;
70078;SDS011;57451;52.496;13.456;2023-07-31T10:05:56;3.58;;;1.35;;
70078;SDS011;57451;52.496;13.456;2023-07-31T10:08:27;3.60;;;1.40;;
70078;SDS011;57451;52.496;13.456;2023-07-31T10:10:58;3.87;;;1.80;;
70078;SDS011;57451;52.496;13.456;2023-07-31T10:13:28;4.45;;;2.13;;
70078;SDS011;57451;52.496;13.456;2023-07-31T10:15:59;4.57;;;2.28;;
70078;SDS011;57451;52.496;13.456;2023-07-31T10:18:28;4.88;;;2.30;;
70078;SDS011;57451;52.496;13.456;2023-07-31T10:20:56;7.10;;;2.80;;
70078;SDS011;57451;52.496;13.456;2023-07-31T10:23:24;6.07;;;2.70;;
70078;SDS011;57451;52.496;13.456;2023-07-31T10:25:52;5.47;;;2.45;;
70078;SDS011;57451;52.496;13.456;2023-07-31T10:28:21;5.90;;;2.58;;
70078;SDS011;57451;52.496;13.456;2023-07-31T10:30:50;7.00;;;3.10;;
70078;SDS011;57451;52.496;13.456;2023-07-31T10:33:19;5.70;;;2.95;;
70078;SDS011;57451;52.496;13.456;2023-07-31T10:35:47;7.10;;;3.10;;
70078;SDS011;57451;52.496;13.456;2023-07-31T10:38:15;8.05;;;3.22;;
70078;SDS011;57451;52.496;13.456;2023-07-31T10:40:42;7.07;;;3.08;;
70078;SDS011;57451;52.496;13.456;2023-07-31T10:43:15;5.57;;;3.13;;
70078;SDS011;57451;52.496;13.456;2023-07-31T10:45:53;6.82;;;3.08;;
70078;SDS011;57451;52.496;13.456;2023-07-31T10:48:20;7.60;;;3.57;;
70078;SDS011;57451;52.496;13.456;2023-07-31T10:50:50;6.47;;;3.33;;
70078;SDS011;57451;52.496;13.456;2023-07-31T10:53:22;6.68;;;3.53;;
70078;SDS011;57451;52.496;13.456;2023-07-31T10:55:50;7.18;;;3.40;;
70078;SDS011;57451;52.496;13.456;2023-07-31T10:58:18;6.18;;;3.10;;
70078;SDS011;57451;52.496;13.456;2023-07-31T11:00:47;8.07;;;3.57;;
70078;SDS011;57451;52.496;13.456;2023-07-31T11:03:18;8.77;;;3.33;;
70078;SDS011;57451;52.496;13.456;2023-07-31T11:05:50;8.05;;;3.40;;
70078;SDS011;57451;52.496;13.456;2023-07-31T11:08:20;8.13;;;3.30;;
70078;SDS011;57451;52.496;13.456;2023-07-31T11:10:49;6.60;;;2.92;;
70078;SDS011;57451;52.496;13.456;2023-07-31T11:13:18;7.80;;;2.80;;
70078;SDS011;57451;52.496;13.456;2023-07-31T11:15:45;7.18;;;3.30;;
70078;SDS011;57451;52.496;13.456;2023-07-31T11:18:13;6.53;;;2.88;;
70078;SDS011;57451;52.496;13.456;2023-07-31T11:20:41;6.60;;;2.97;;
70078;SDS011;57451;52.496;13.456;2023-07-31T11:23:09;6.32;;;2.90;;
70078;SDS011;57451;52.496;13.456;2023-07-31T11:25:38;7.07;;;3.07;;
70078;SDS011;57451;52.496;13.456;2023-07-31T11:28:08;5.32;;;2.72;;
70078;SDS011;57451;52.496;13.456;2023-07-31T11:30:38;7.55;;;3.10;;
70078;SDS011;57451;52.496;13.456;2023-07-31T11:33:08;7.03;;;2.80;;
70078;SDS011;57451;52.496;13.456;2023-07-31T11:35:42;6.05;;;2.55;;
70078;SDS011;57451;52.496;13.456;2023-07-31T11:38:12;5.57;;;2.90;;
70078;SDS011;57451;52.496;13.456;2023-07-31T11:40:47;7.63;;;3.00;;
70078;SDS011;57451;52.496;13.456;2023-07-31T11:43:14;6.80;;;2.72;;
70078;SDS011;57451;52.496;13.456;2023-07-31T11:45:44;6.57;;;2.58;;
70078;SDS011;57451;52.496;13.456;2023-07-31T11:48:20;7.82;;;3.05;;
70078;SDS011;57451;52.496;13.456;2023-07-31T11:50:51;5.30;;;2.60;;
70078;SDS011;57451;52.496;13.456;2023-07-31T11:53:22;6.32;;;2.55;;
70078;SDS011;57451;52.496;13.456;2023-07-31T11:55:53;7.53;;;2.58;;
70078;SDS011;57451;52.496;13.456;2023-07-31T11:58:21;5.75;;;2.60;;
70078;SDS011;57451;52.496;13.456;2023-07-31T12:00:49;5.53;;;3.00;;
70078;SDS011;57451;52.496;13.456;2023-07-31T12:03:17;7.30;;;3.03;;
70078;SDS011;57451;52.496;13.456;2023-07-31T12:05:46;5.30;;;2.60;;
70078;SDS011;57451;52.496;13.456;2023-07-31T12:08:15;5.68;;;2.70;;
70078;SDS011;57451;52.496;13.456;2023-07-31T12:10:43;5.97;;;2.70;;
70078;SDS011;57451;52.496;13.456;2023-07-31T12:13:12;5.00;;;2.40;;
70078;SDS011;57451;52.496;13.456;2023-07-31T12:15:47;5.73;;;2.57;;
70078;SDS011;57451;52.496;13.456;2023-07-31T12:18:16;6.90;;;2.70;;
70078;SDS011;57451;52.496;13.456;2023-07-31T12:20:47;5.28;;;2.55;;
70078;SDS011;57451;52.496;13.456;2023-07-31T12:23:17;8.23;;;2.92;;
70078;SDS011;57451;52.496;13.456;2023-07-31T12:26:00;6.45;;;2.75;;
70078;SDS011;57451;52.496;13.456;2023-07-31T12:28:28;7.80;;;2.90;;
70078;SDS011;57451;52.496;13.456;2023-07-31T12:30:56;4.53;;;2.53;;
70078;SDS011;57451;52.496;13.456;2023-07-31T12:33:30;5.93;;;2.60;;
70078;SDS011;57451;52.496;13.456;2023-07-31T12:36:00;5.32;;;2.70;;
70078;SDS011;57451;52.496;13.456;2023-07-31T12:38:29;5.45;;;2.50;;
70078;SDS011;57451;52.496;13.456;2023-07-31T12:40:57;6.07;;;2.93;;
70078;SDS011;57451;52.496;13.456;2023-07-31T12:43:24;6.43;;;2.70;;
70078;SDS011;57451;52.496;13.456;2023-07-31T12:45:53;7.05;;;2.80;;
70078;SDS011;57451;52.496;13.456;2023-07-31T12:48:22;6.85;;;2.72;;
70078;SDS011;57451;52.496;13.456;2023-07-31T12:50:50;7.90;;;2.60;;
70078;SDS011;57451;52.496;13.456;2023-07-31T12:53:17;5.73;;;2.47;;
70078;SDS011;57451;52.496;13.456;2023-07-31T12:55:46;5.50;;;2.28;;
70078;SDS011;57451;52.496;13.456;2023-07-31T12:58:13;5.82;;;2.30;;
70078;SDS011;57451;52.496;13.456;2023-07-31T13:00:41;6.32;;;2.40;;
70078;SDS011;57451;52.496;13.456;2023-07-31T13:03:09;4.53;;;2.13;;
70078;SDS011;57451;52.496;13.456;2023-07-31T13:05:37;4.57;;;2.03;;
70078;SDS011;57451;52.496;13.456;2023-07-31T13:08:05;4.20;;;1.90;;
70078;SDS011;57451;52.496;13.456;2023-07-31T13:10:32;4.50;;;1.80;;
70078;SDS011;57451;52.496;13.456;2023-07-31T13:13:01;5.70;;;2.20;;
70078;SDS011;57451;52.496;13.456;2023-07-31T13:15:28;3.92;;;1.88;;
70078;SDS011;57451;52.496;13.456;2023-07-31T13:17:56;4.40;;;1.93;;
70078;SDS011;57451;52.496;13.456;2023-07-31T13:20:23;5.05;;;1.90;;
70078;SDS011;57451;52.496;13.456;2023-07-31T13:22:50;4.78;;;2.22;;
70078;SDS011;57451;52.496;13.456;2023-07-31T13:25:18;4.22;;;2.00;;
70078;SDS011;57451;52.496;13.456;2023-07-31T13:27:45;4.78;;;2.30;;
70078;SDS011;57451;52.496;13.456;2023-07-31T13:30:14;5.53;;;2.47;;
70078;SDS011;57451;52.496;13.456;2023-07-31T13:32:41;5.18;;;2.53;;
70078;SDS011;57451;52.496;13.456;2023-07-31T13:35:08;8.75;;;2.85;;
70078;SDS011;57451;52.496;13.456;2023-07-31T13:37:38;6.35;;;2.53;;
70078;SDS011;57451;52.496;13.456;2023-07-31T13:40:06;5.60;;;2.40;;
70078;SDS011;57451;52.496;13.456;2023-07-31T13:42:34;4.90;;;2.40;;
70078;SDS011;57451;52.496;13.456;2023-07-31T13:45:02;5.28;;;2.85;;
70078;SDS011;57451;52.496;13.456;2023-07-31T13:47:34;5.40;;;2.60;;
70078;SDS011;57451;52.496;13.456;2023-07-31T13:50:04;5.00;;;2.65;;
70078;SDS011;57451;52.496;13.456;2023-07-31T13:52:32;5.50;;;2.40;;
70078;SDS011;57451;52.496;13.456;2023-07-31T13:54:59;5.00;;;2.63;;
70078;SDS011;57451;52.496;13.456;2023-07-31T13:57:27;5.30;;;2.53;;
70078;SDS011;57451;52.496;13.456;2023-07-31T13:59:55;6.40;;;2.83;;
70078;SDS011;57451;52.496;13.456;2023-07-31T14:02:22;6.30;;;2.90;;
70078;SDS011;57451;52.496;13.456;2023-07-31T14:04:51;6.70;;;2.85;;
70078;SDS011;57451;52.496;13.456;2023-07-31T14:07:18;6.67;;;2.90;;
70078;SDS011;57451;52.496;13.456;2023-07-31T14:09:45;5.55;;;2.53;;
70078;SDS011;57451;52.496;13.456;2023-07-31T14:12:13;6.10;;;2.80;;
70078;SDS011;57451;52.496;13.456;2023-07-31T14:15:00;5.85;;;2.90;;
70078;SDS011;57451;52.496;13.456;2023-07-31T14:17:28;6.88;;;2.63;;
70078;SDS011;57451;52.496;13.456;2023-07-31T14:19:57;6.73;;;3.20;;
70078;SDS011;57451;52.496;13.456;2023-07-31T14:22:28;7.15;;;2.78;;
70078;SDS011;57451;52.496;13.456;2023-07-31T14:24:56;7.32;;;2.97;;
70078;SDS011;57451;52.496;13.456;2023-07-31T14:27:24;5.35;;;2.85;;
70078;SDS011;57451;52.496;13.456;2023-07-31T14:29:51;5.75;;;2.80;;
70078;SDS011;57451;52.496;13.456;2023-07-31T14:32:18;6.30;;;2.80;;
70078;SDS011;57451;52.496;13.456;2023-07-31T14:34:47;6.30;;;2.70;;
70078;SDS011;57451;52.496;13.456;2023-07-31T14:37:16;7.85;;;2.90;;
70078;SDS011;57451;52.496;13.456;2023-07-31T14:39:44;7.50;;;3.00;;